sensor_id;sensor_type;location;lat;lon;timestamp;P1;durP1;ratioP1;P2;durP2;ratioP2
70322;SDS011;57735;56.264;43.898;2023-09-18T00:02:16;4.95;;;2.70;;
70322;SDS011;57735;56.264;43.898;2023-09-18T00:04:47;7.55;;;2.85;;
70322;SDS011;57735;56.264;43.898;2023-09-18T00:07:18;5.03;;;2.88;;
70322;SDS011;57735;56.264;43.898;2023-09-18T00:09:49;6.03;;;3.03;;
70322;SDS011;57735;56.264;43.898;2023-09-18T00:12:21;7.45;;;3.20;;
70322;SDS011;57735;56.264;43.898;2023-09-18T00:14:52;7.05;;;3.47;;
70322;SDS011;57735;56.264;43.898;2023-09-18T00:17:23;5.78;;;3.35;;
70322;SDS011;57735;56.264;43.898;2023-09-18T00:19:54;8.80;;;3.10;;
70322;SDS011;57735;56.264;43.898;2023-09-18T00:22:30;5.90;;;2.88;;
70322;SDS011;57735;56.264;43.898;2023-09-18T00:25:01;7.47;;;3.28;;
70322;SDS011;57735;56.264;43.898;2023-09-18T00:27:35;7.22;;;3.53;;
70322;SDS011;57735;56.264;43.898;2023-09-18T00:30:06;6.65;;;3.10;;
70322;SDS011;57735;56.264;43.898;2023-09-18T00:32:41;7.90;;;3.13;;
70322;SDS011;57735;56.264;43.898;2023-09-18T00:35:17;6.72;;;2.97;;
70322;SDS011;57735;56.264;43.898;2023-09-18T00:37:50;10.90;;;3.58;;
70322;SDS011;57735;56.264;43.898;2023-09-18T00:40:21;7.18;;;3.10;;
70322;SDS011;57735;56.264;43.898;2023-09-18T00:42:52;5.75;;;2.80;;
70322;SDS011;57735;56.264;43.898;2023-09-18T00:45:23;8.73;;;3.25;;
70322;SDS011;57735;56.264;43.898;2023-09-18T00:47:56;9.13;;;3.78;;
70322;SDS011;57735;56.264;43.898;2023-09-18T00:50:27;6.07;;;3.03;;
70322;SDS011;57735;56.264;43.898;2023-09-18T00:52:58;5.40;;;3.00;;
70322;SDS011;57735;56.264;43.898;2023-09-18T00:55:32;6.28;;;3.30;;
70322;SDS011;57735;56.264;43.898;2023-09-18T00:58:04;7.78;;;2.97;;
70322;SDS011;57735;56.264;43.898;2023-09-18T01:00:37;5.07;;;2.97;;
70322;SDS011;57735;56.264;43.898;2023-09-18T01:03:10;6.72;;;3.03;;
70322;SDS011;57735;56.264;43.898;2023-09-18T01:05:41;4.32;;;2.60;;
70322;SDS011;57735;56.264;43.898;2023-09-18T01:08:12;6.50;;;3.05;;
70322;SDS011;57735;56.264;43.898;2023-09-18T01:10:47;5.63;;;2.97;;
70322;SDS011;57735;56.264;43.898;2023-09-18T01:13:30;5.15;;;2.80;;
70322;SDS011;57735;56.264;43.898;2023-09-18T01:16:17;5.60;;;2.85;;
70322;SDS011;57735;56.264;43.898;2023-09-18T01:18:55;5.13;;;2.75;;
70322;SDS011;57735;56.264;43.898;2023-09-18T01:21:25;5.38;;;3.20;;
70322;SDS011;57735;56.264;43.898;2023-09-18T01:23:56;15.25;;;3.85;;
70322;SDS011;57735;56.264;43.898;2023-09-18T01:26:27;31.90;;;4.70;;
70322;SDS011;57735;56.264;43.898;2023-09-18T01:28:58;31.60;;;5.28;;
70322;SDS011;57735;56.264;43.898;2023-09-18T01:31:31;7.43;;;3.25;;
70322;SDS011;57735;56.264;43.898;2023-09-18T01:34:02;8.25;;;3.10;;
70322;SDS011;57735;56.264;43.898;2023-09-18T01:36:33;10.27;;;3.70;;
70322;SDS011;57735;56.264;43.898;2023-09-18T01:39:04;7.70;;;3.17;;
70322;SDS011;57735;56.264;43.898;2023-09-18T01:41:38;8.13;;;3.00;;
70322;SDS011;57735;56.264;43.898;2023-09-18T01:44:10;6.15;;;3.40;;
70322;SDS011;57735;56.264;43.898;2023-09-18T01:46:40;6.53;;;3.05;;
70322;SDS011;57735;56.264;43.898;2023-09-18T01:49:13;8.95;;;3.30;;
70322;SDS011;57735;56.264;43.898;2023-09-18T01:51:43;6.78;;;3.22;;
70322;SDS011;57735;56.264;43.898;2023-09-18T01:54:14;6.63;;;3.03;;
70322;SDS011;57735;56.264;43.898;2023-09-18T01:56:45;9.18;;;3.60;;
70322;SDS011;57735;56.264;43.898;2023-09-18T01:59:19;7.65;;;3.50;;
70322;SDS011;57735;56.264;43.898;2023-09-18T02:04:22;6.70;;;3.35;;
70322;SDS011;57735;56.264;43.898;2023-09-18T02:06:53;10.68;;;3.58;;
70322;SDS011;57735;56.264;43.898;2023-09-18T02:09:24;9.00;;;3.85;;
70322;SDS011;57735;56.264;43.898;2023-09-18T02:11:55;9.70;;;3.78;;
70322;SDS011;57735;56.264;43.898;2023-09-18T02:14:26;10.68;;;3.72;;
70322;SDS011;57735;56.264;43.898;2023-09-18T02:16:57;11.10;;;3.40;;
70322;SDS011;57735;56.264;43.898;2023-09-18T02:19:31;6.70;;;3.60;;
70322;SDS011;57735;56.264;43.898;2023-09-18T02:22:02;8.55;;;3.42;;
70322;SDS011;57735;56.264;43.898;2023-09-18T02:24:33;6.13;;;3.13;;
70322;SDS011;57735;56.264;43.898;2023-09-18T02:27:04;8.27;;;3.35;;
70322;SDS011;57735;56.264;43.898;2023-09-18T02:29:36;9.00;;;3.60;;
70322;SDS011;57735;56.264;43.898;2023-09-18T02:32:07;8.50;;;3.50;;
70322;SDS011;57735;56.264;43.898;2023-09-18T02:34:38;9.32;;;3.25;;
70322;SDS011;57735;56.264;43.898;2023-09-18T02:37:08;6.68;;;3.83;;
70322;SDS011;57735;56.264;43.898;2023-09-18T02:39:39;11.68;;;3.33;;
70322;SDS011;57735;56.264;43.898;2023-09-18T02:42:11;9.07;;;3.42;;
70322;SDS011;57735;56.264;43.898;2023-09-18T02:44:44;4.93;;;3.30;;
70322;SDS011;57735;56.264;43.898;2023-09-18T02:47:15;7.47;;;3.22;;
70322;SDS011;57735;56.264;43.898;2023-09-18T02:49:48;9.18;;;3.63;;
70322;SDS011;57735;56.264;43.898;2023-09-18T02:52:19;4.88;;;2.85;;
70322;SDS011;57735;56.264;43.898;2023-09-18T02:54:50;6.47;;;3.60;;
70322;SDS011;57735;56.264;43.898;2023-09-18T02:57:24;11.95;;;3.33;;
70322;SDS011;57735;56.264;43.898;2023-09-18T02:59:54;8.35;;;3.30;;
70322;SDS011;57735;56.264;43.898;2023-09-18T03:02:28;7.25;;;3.30;;
70322;SDS011;57735;56.264;43.898;2023-09-18T03:04:59;6.60;;;3.47;;
70322;SDS011;57735;56.264;43.898;2023-09-18T03:07:29;7.65;;;3.58;;
70322;SDS011;57735;56.264;43.898;2023-09-18T03:10:01;9.50;;;3.65;;
70322;SDS011;57735;56.264;43.898;2023-09-18T03:12:34;9.13;;;3.75;;
70322;SDS011;57735;56.264;43.898;2023-09-18T03:15:07;8.25;;;3.70;;
70322;SDS011;57735;56.264;43.898;2023-09-18T03:17:38;7.15;;;3.42;;
70322;SDS011;57735;56.264;43.898;2023-09-18T03:20:11;9.93;;;3.70;;
70322;SDS011;57735;56.264;43.898;2023-09-18T03:22:42;8.80;;;3.63;;
70322;SDS011;57735;56.264;43.898;2023-09-18T03:25:13;11.63;;;4.18;;
70322;SDS011;57735;56.264;43.898;2023-09-18T03:27:44;9.02;;;3.80;;
70322;SDS011;57735;56.264;43.898;2023-09-18T03:30:17;12.15;;;4.00;;
70322;SDS011;57735;56.264;43.898;2023-09-18T03:32:51;10.32;;;4.47;;
70322;SDS011;57735;56.264;43.898;2023-09-18T03:35:23;6.90;;;3.85;;
70322;SDS011;57735;56.264;43.898;2023-09-18T03:37:54;10.73;;;3.60;;
70322;SDS011;57735;56.264;43.898;2023-09-18T03:40:25;8.15;;;4.60;;
70322;SDS011;57735;56.264;43.898;2023-09-18T03:42:55;10.25;;;4.00;;
70322;SDS011;57735;56.264;43.898;2023-09-18T03:45:26;10.63;;;4.07;;
70322;SDS011;57735;56.264;43.898;2023-09-18T03:47:59;8.75;;;4.38;;
70322;SDS011;57735;56.264;43.898;2023-09-18T03:50:30;11.50;;;4.53;;
70322;SDS011;57735;56.264;43.898;2023-09-18T03:53:01;8.90;;;4.10;;
70322;SDS011;57735;56.264;43.898;2023-09-18T03:55:32;9.50;;;4.35;;
70322;SDS011;57735;56.264;43.898;2023-09-18T03:58:06;12.48;;;4.68;;
70322;SDS011;57735;56.264;43.898;2023-09-18T04:00:39;11.88;;;4.60;;
70322;SDS011;57735;56.264;43.898;2023-09-18T04:03:09;10.23;;;4.50;;
70322;SDS011;57735;56.264;43.898;2023-09-18T04:05:40;7.38;;;4.22;;
70322;SDS011;57735;56.264;43.898;2023-09-18T04:08:11;11.55;;;4.85;;
70322;SDS011;57735;56.264;43.898;2023-09-18T04:10:43;14.57;;;4.85;;
70322;SDS011;57735;56.264;43.898;2023-09-18T04:13:15;11.48;;;4.55;;
70322;SDS011;57735;56.264;43.898;2023-09-18T04:15:46;11.23;;;4.97;;
70322;SDS011;57735;56.264;43.898;2023-09-18T04:18:16;12.25;;;4.70;;
70322;SDS011;57735;56.264;43.898;2023-09-18T04:20:47;14.00;;;4.43;;
70322;SDS011;57735;56.264;43.898;2023-09-18T04:23:26;12.02;;;4.38;;
70322;SDS011;57735;56.264;43.898;2023-09-18T04:25:57;9.18;;;4.63;;
70322;SDS011;57735;56.264;43.898;2023-09-18T04:28:34;10.25;;;4.40;;
70322;SDS011;57735;56.264;43.898;2023-09-18T04:31:05;12.63;;;4.97;;
70322;SDS011;57735;56.264;43.898;2023-09-18T04:33:35;11.95;;;4.93;;
70322;SDS011;57735;56.264;43.898;2023-09-18T04:36:06;10.20;;;5.75;;
70322;SDS011;57735;56.264;43.898;2023-09-18T04:38:37;18.23;;;5.55;;
70322;SDS011;57735;56.264;43.898;2023-09-18T04:41:08;10.75;;;5.07;;
70322;SDS011;57735;56.264;43.898;2023-09-18T04:43:41;15.50;;;6.18;;
70322;SDS011;57735;56.264;43.898;2023-09-18T04:46:15;25.27;;;6.00;;
70322;SDS011;57735;56.264;43.898;2023-09-18T04:48:46;15.68;;;6.10;;
70322;SDS011;57735;56.264;43.898;2023-09-18T04:51:17;21.70;;;5.35;;
70322;SDS011;57735;56.264;43.898;2023-09-18T04:53:48;12.52;;;5.97;;
70322;SDS011;57735;56.264;43.898;2023-09-18T04:56:22;11.75;;;4.78;;
70322;SDS011;57735;56.264;43.898;2023-09-18T04:58:53;13.32;;;6.13;;
70322;SDS011;57735;56.264;43.898;2023-09-18T05:01:23;15.85;;;5.88;;
70322;SDS011;57735;56.264;43.898;2023-09-18T05:03:57;13.63;;;5.53;;
70322;SDS011;57735;56.264;43.898;2023-09-18T05:06:28;10.27;;;5.60;;
70322;SDS011;57735;56.264;43.898;2023-09-18T05:08:59;12.40;;;5.80;;
70322;SDS011;57735;56.264;43.898;2023-09-18T05:11:30;12.70;;;5.65;;
70322;SDS011;57735;56.264;43.898;2023-09-18T05:14:01;15.85;;;6.18;;
70322;SDS011;57735;56.264;43.898;2023-09-18T05:16:32;13.13;;;6.05;;
70322;SDS011;57735;56.264;43.898;2023-09-18T05:19:03;15.90;;;6.50;;
70322;SDS011;57735;56.264;43.898;2023-09-18T05:21:34;18.70;;;6.50;;
70322;SDS011;57735;56.264;43.898;2023-09-18T05:26:39;11.68;;;5.88;;
70322;SDS011;57735;56.264;43.898;2023-09-18T05:29:12;14.45;;;6.38;;
70322;SDS011;57735;56.264;43.898;2023-09-18T05:31:46;21.02;;;6.30;;
70322;SDS011;57735;56.264;43.898;2023-09-18T05:34:16;18.58;;;6.65;;
70322;SDS011;57735;56.264;43.898;2023-09-18T05:36:47;16.20;;;6.85;;
70322;SDS011;57735;56.264;43.898;2023-09-18T05:39:18;14.27;;;5.82;;
70322;SDS011;57735;56.264;43.898;2023-09-18T05:41:50;16.50;;;6.72;;
70322;SDS011;57735;56.264;43.898;2023-09-18T05:44:21;17.65;;;7.72;;
70322;SDS011;57735;56.264;43.898;2023-09-18T05:46:51;16.08;;;6.25;;
70322;SDS011;57735;56.264;43.898;2023-09-18T05:49:23;24.45;;;6.63;;
70322;SDS011;57735;56.264;43.898;2023-09-18T05:51:54;14.02;;;6.47;;
70322;SDS011;57735;56.264;43.898;2023-09-18T05:54:24;12.48;;;6.43;;
70322;SDS011;57735;56.264;43.898;2023-09-18T05:56:55;16.05;;;5.95;;
70322;SDS011;57735;56.264;43.898;2023-09-18T05:59:26;12.52;;;6.28;;
70322;SDS011;57735;56.264;43.898;2023-09-18T06:01:57;13.75;;;6.35;;
70322;SDS011;57735;56.264;43.898;2023-09-18T06:04:28;13.30;;;6.38;;
70322;SDS011;57735;56.264;43.898;2023-09-18T06:06:59;16.02;;;5.90;;
70322;SDS011;57735;56.264;43.898;2023-09-18T06:09:32;20.25;;;7.10;;
70322;SDS011;57735;56.264;43.898;2023-09-18T06:12:03;15.07;;;6.80;;
70322;SDS011;57735;56.264;43.898;2023-09-18T06:14:35;15.85;;;9.15;;
70322;SDS011;57735;56.264;43.898;2023-09-18T06:17:08;17.90;;;7.90;;
70322;SDS011;57735;56.264;43.898;2023-09-18T06:19:40;12.50;;;6.75;;
70322;SDS011;57735;56.264;43.898;2023-09-18T06:22:13;11.73;;;6.18;;
70322;SDS011;57735;56.264;43.898;2023-09-18T06:24:44;13.27;;;6.13;;
70322;SDS011;57735;56.264;43.898;2023-09-18T06:27:15;12.90;;;6.43;;
70322;SDS011;57735;56.264;43.898;2023-09-18T06:29:46;26.45;;;6.50;;
70322;SDS011;57735;56.264;43.898;2023-09-18T06:32:17;16.30;;;5.72;;
70322;SDS011;57735;56.264;43.898;2023-09-18T06:34:47;15.82;;;6.53;;
70322;SDS011;57735;56.264;43.898;2023-09-18T06:37:18;15.85;;;5.95;;
70322;SDS011;57735;56.264;43.898;2023-09-18T06:39:50;9.73;;;5.10;;
70322;SDS011;57735;56.264;43.898;2023-09-18T06:42:22;12.38;;;4.88;;
70322;SDS011;57735;56.264;43.898;2023-09-18T06:44:52;16.52;;;5.80;;
70322;SDS011;57735;56.264;43.898;2023-09-18T06:47:24;15.98;;;6.18;;
70322;SDS011;57735;56.264;43.898;2023-09-18T06:49:55;14.27;;;6.03;;
70322;SDS011;57735;56.264;43.898;2023-09-18T06:52:26;13.02;;;5.65;;
70322;SDS011;57735;56.264;43.898;2023-09-18T06:54:58;11.77;;;5.53;;
70322;SDS011;57735;56.264;43.898;2023-09-18T06:57:29;12.88;;;5.88;;
70322;SDS011;57735;56.264;43.898;2023-09-18T07:00:00;12.18;;;6.18;;
70322;SDS011;57735;56.264;43.898;2023-09-18T07:02:33;12.05;;;5.13;;
70322;SDS011;57735;56.264;43.898;2023-09-18T07:05:04;21.67;;;5.65;;
70322;SDS011;57735;56.264;43.898;2023-09-18T07:07:35;7.30;;;4.53;;
70322;SDS011;57735;56.264;43.898;2023-09-18T07:10:09;15.37;;;5.10;;
70322;SDS011;57735;56.264;43.898;2023-09-18T07:12:40;14.10;;;4.93;;
70322;SDS011;57735;56.264;43.898;2023-09-18T07:15:14;9.80;;;5.25;;
70322;SDS011;57735;56.264;43.898;2023-09-18T07:17:45;11.25;;;5.18;;
70322;SDS011;57735;56.264;43.898;2023-09-18T07:20:15;13.57;;;5.90;;
70322;SDS011;57735;56.264;43.898;2023-09-18T07:22:47;7.32;;;4.45;;
70322;SDS011;57735;56.264;43.898;2023-09-18T07:25:18;10.68;;;4.40;;
70322;SDS011;57735;56.264;43.898;2023-09-18T07:27:49;15.98;;;4.82;;
70322;SDS011;57735;56.264;43.898;2023-09-18T07:30:20;16.80;;;4.47;;
70322;SDS011;57735;56.264;43.898;2023-09-18T07:32:55;7.30;;;3.80;;
70322;SDS011;57735;56.264;43.898;2023-09-18T07:35:31;8.15;;;3.92;;
70322;SDS011;57735;56.264;43.898;2023-09-18T07:38:02;8.95;;;4.15;;
70322;SDS011;57735;56.264;43.898;2023-09-18T07:40:33;8.73;;;3.75;;
70322;SDS011;57735;56.264;43.898;2023-09-18T07:43:06;10.20;;;3.28;;
70322;SDS011;57735;56.264;43.898;2023-09-18T07:45:39;12.95;;;4.00;;
70322;SDS011;57735;56.264;43.898;2023-09-18T07:48:13;14.70;;;4.53;;
70322;SDS011;57735;56.264;43.898;2023-09-18T07:50:46;10.93;;;3.78;;
70322;SDS011;57735;56.264;43.898;2023-09-18T07:53:19;6.57;;;4.05;;
70322;SDS011;57735;56.264;43.898;2023-09-18T07:55:55;9.93;;;3.72;;
70322;SDS011;57735;56.264;43.898;2023-09-18T07:58:27;10.13;;;3.22;;
70322;SDS011;57735;56.264;43.898;2023-09-18T08:01:04;6.85;;;3.70;;
70322;SDS011;57735;56.264;43.898;2023-09-18T08:03:46;14.15;;;4.45;;
70322;SDS011;57735;56.264;43.898;2023-09-18T08:06:18;12.82;;;4.32;;
70322;SDS011;57735;56.264;43.898;2023-09-18T08:08:49;12.82;;;4.13;;
70322;SDS011;57735;56.264;43.898;2023-09-18T08:11:20;9.68;;;4.32;;
70322;SDS011;57735;56.264;43.898;2023-09-18T08:13:51;12.90;;;3.95;;
70322;SDS011;57735;56.264;43.898;2023-09-18T08:16:24;14.38;;;4.18;;
70322;SDS011;57735;56.264;43.898;2023-09-18T08:18:55;18.70;;;5.07;;
70322;SDS011;57735;56.264;43.898;2023-09-18T08:21:26;28.83;;;7.65;;
70322;SDS011;57735;56.264;43.898;2023-09-18T08:23:59;11.90;;;4.28;;
70322;SDS011;57735;56.264;43.898;2023-09-18T08:26:30;9.82;;;4.35;;
70322;SDS011;57735;56.264;43.898;2023-09-18T08:29:01;8.50;;;4.25;;
70322;SDS011;57735;56.264;43.898;2023-09-18T08:31:31;13.13;;;4.80;;
70322;SDS011;57735;56.264;43.898;2023-09-18T08:34:02;26.42;;;4.93;;
70322;SDS011;57735;56.264;43.898;2023-09-18T08:36:33;15.68;;;4.13;;
70322;SDS011;57735;56.264;43.898;2023-09-18T08:39:04;11.20;;;4.30;;
70322;SDS011;57735;56.264;43.898;2023-09-18T08:41:38;8.50;;;4.63;;
70322;SDS011;57735;56.264;43.898;2023-09-18T08:44:12;8.48;;;4.95;;
70322;SDS011;57735;56.264;43.898;2023-09-18T08:46:44;17.20;;;5.22;;
70322;SDS011;57735;56.264;43.898;2023-09-18T08:49:15;9.13;;;4.35;;
70322;SDS011;57735;56.264;43.898;2023-09-18T08:51:47;13.75;;;4.43;;
70322;SDS011;57735;56.264;43.898;2023-09-18T08:54:19;13.23;;;4.47;;
70322;SDS011;57735;56.264;43.898;2023-09-18T08:56:52;13.10;;;4.32;;
70322;SDS011;57735;56.264;43.898;2023-09-18T08:59:25;22.92;;;4.88;;
70322;SDS011;57735;56.264;43.898;2023-09-18T09:01:57;26.20;;;6.65;;
70322;SDS011;57735;56.264;43.898;2023-09-18T09:04:28;11.85;;;3.75;;
70322;SDS011;57735;56.264;43.898;2023-09-18T09:07:00;10.20;;;4.45;;
70322;SDS011;57735;56.264;43.898;2023-09-18T09:09:31;7.82;;;4.13;;
70322;SDS011;57735;56.264;43.898;2023-09-18T09:12:02;9.52;;;4.63;;
70322;SDS011;57735;56.264;43.898;2023-09-18T09:14:33;11.70;;;4.70;;
70322;SDS011;57735;56.264;43.898;2023-09-18T09:17:05;11.60;;;4.20;;
70322;SDS011;57735;56.264;43.898;2023-09-18T09:19:36;9.35;;;4.80;;
70322;SDS011;57735;56.264;43.898;2023-09-18T09:22:09;17.83;;;5.70;;
70322;SDS011;57735;56.264;43.898;2023-09-18T09:24:40;12.90;;;5.10;;
70322;SDS011;57735;56.264;43.898;2023-09-18T09:27:13;9.80;;;4.63;;
70322;SDS011;57735;56.264;43.898;2023-09-18T09:29:58;9.07;;;4.63;;
70322;SDS011;57735;56.264;43.898;2023-09-18T09:32:31;11.77;;;5.05;;
70322;SDS011;57735;56.264;43.898;2023-09-18T09:35:03;10.90;;;5.15;;
70322;SDS011;57735;56.264;43.898;2023-09-18T09:37:37;13.57;;;6.32;;
70322;SDS011;57735;56.264;43.898;2023-09-18T09:40:11;17.67;;;6.57;;
70322;SDS011;57735;56.264;43.898;2023-09-18T09:42:44;9.57;;;5.75;;
70322;SDS011;57735;56.264;43.898;2023-09-18T09:45:19;34.20;;;8.57;;
70322;SDS011;57735;56.264;43.898;2023-09-18T09:47:53;17.27;;;7.40;;
70322;SDS011;57735;56.264;43.898;2023-09-18T09:50:27;15.98;;;7.18;;
70322;SDS011;57735;56.264;43.898;2023-09-18T09:53:03;16.52;;;7.30;;
70322;SDS011;57735;56.264;43.898;2023-09-18T09:55:34;40.50;;;7.07;;
70322;SDS011;57735;56.264;43.898;2023-09-18T09:58:06;9.80;;;5.70;;
70322;SDS011;57735;56.264;43.898;2023-09-18T10:00:43;12.88;;;5.68;;
70322;SDS011;57735;56.264;43.898;2023-09-18T10:03:19;14.43;;;5.00;;
70322;SDS011;57735;56.264;43.898;2023-09-18T10:05:53;11.68;;;4.57;;
70322;SDS011;57735;56.264;43.898;2023-09-18T10:08:30;12.52;;;4.50;;
70322;SDS011;57735;56.264;43.898;2023-09-18T10:11:06;10.68;;;4.70;;
70322;SDS011;57735;56.264;43.898;2023-09-18T10:13:42;10.48;;;3.78;;
70322;SDS011;57735;56.264;43.898;2023-09-18T10:16:36;8.52;;;4.07;;
70322;SDS011;57735;56.264;43.898;2023-09-18T10:19:34;9.20;;;4.40;;
70322;SDS011;57735;56.264;43.898;2023-09-18T10:22:30;8.50;;;4.30;;
70322;SDS011;57735;56.264;43.898;2023-09-18T10:25:11;6.22;;;4.03;;
70322;SDS011;57735;56.264;43.898;2023-09-18T10:27:51;9.90;;;4.88;;
70322;SDS011;57735;56.264;43.898;2023-09-18T10:30:32;11.45;;;4.55;;
70322;SDS011;57735;56.264;43.898;2023-09-18T10:33:04;8.55;;;4.70;;
70322;SDS011;57735;56.264;43.898;2023-09-18T10:35:37;9.30;;;4.78;;
70322;SDS011;57735;56.264;43.898;2023-09-18T10:38:09;9.63;;;4.97;;
70322;SDS011;57735;56.264;43.898;2023-09-18T10:40:41;7.13;;;4.05;;
70322;SDS011;57735;56.264;43.898;2023-09-18T10:43:15;6.85;;;4.20;;
70322;SDS011;57735;56.264;43.898;2023-09-18T10:45:46;12.02;;;5.80;;
70322;SDS011;57735;56.264;43.898;2023-09-18T10:56:28;8.55;;;4.20;;
70322;SDS011;57735;56.264;43.898;2023-09-18T10:58:59;9.20;;;4.18;;
70322;SDS011;57735;56.264;43.898;2023-09-18T11:01:31;9.57;;;4.03;;
70322;SDS011;57735;56.264;43.898;2023-09-18T11:04:20;8.75;;;4.60;;
70322;SDS011;57735;56.264;43.898;2023-09-18T11:12:03;14.85;;;4.93;;
70322;SDS011;57735;56.264;43.898;2023-09-18T11:14:41;6.57;;;4.20;;
70322;SDS011;57735;56.264;43.898;2023-09-18T11:20:08;10.80;;;4.88;;
70322;SDS011;57735;56.264;43.898;2023-09-18T11:22:46;7.05;;;3.55;;
70322;SDS011;57735;56.264;43.898;2023-09-18T11:28:16;12.07;;;4.53;;
70322;SDS011;57735;56.264;43.898;2023-09-18T11:30:57;15.27;;;4.10;;
70322;SDS011;57735;56.264;43.898;2023-09-18T11:33:34;58.40;;;7.88;;
70322;SDS011;57735;56.264;43.898;2023-09-18T11:36:08;16.67;;;4.70;;
70322;SDS011;57735;56.264;43.898;2023-09-18T11:38:58;15.60;;;4.50;;
70322;SDS011;57735;56.264;43.898;2023-09-18T11:41:35;21.15;;;7.10;;
70322;SDS011;57735;56.264;43.898;2023-09-18T11:46:49;11.57;;;4.72;;
70322;SDS011;57735;56.264;43.898;2023-09-18T11:49:23;13.00;;;4.40;;
70322;SDS011;57735;56.264;43.898;2023-09-18T11:51:58;8.73;;;4.50;;
70322;SDS011;57735;56.264;43.898;2023-09-18T11:54:31;10.82;;;4.55;;
70322;SDS011;57735;56.264;43.898;2023-09-18T11:57:10;12.15;;;4.28;;
70322;SDS011;57735;56.264;43.898;2023-09-18T11:59:41;8.05;;;4.32;;
70322;SDS011;57735;56.264;43.898;2023-09-18T12:02:14;11.55;;;4.10;;
70322;SDS011;57735;56.264;43.898;2023-09-18T12:07:29;5.90;;;3.03;;
70322;SDS011;57735;56.264;43.898;2023-09-18T12:10:04;17.70;;;3.72;;
70322;SDS011;57735;56.264;43.898;2023-09-18T12:12:37;13.40;;;3.80;;
70322;SDS011;57735;56.264;43.898;2023-09-18T12:15:10;8.80;;;3.47;;
70322;SDS011;57735;56.264;43.898;2023-09-18T12:17:42;10.73;;;3.50;;
70322;SDS011;57735;56.264;43.898;2023-09-18T12:20:16;20.17;;;4.23;;
70322;SDS011;57735;56.264;43.898;2023-09-18T12:25:21;11.95;;;4.30;;
70322;SDS011;57735;56.264;43.898;2023-09-18T12:27:54;6.93;;;3.08;;
70322;SDS011;57735;56.264;43.898;2023-09-18T12:30:26;9.93;;;3.47;;
70322;SDS011;57735;56.264;43.898;2023-09-18T12:32:57;5.22;;;3.35;;
70322;SDS011;57735;56.264;43.898;2023-09-18T12:35:30;9.15;;;3.70;;
70322;SDS011;57735;56.264;43.898;2023-09-18T12:38:02;7.13;;;3.20;;
70322;SDS011;57735;56.264;43.898;2023-09-18T12:40:44;8.40;;;3.75;;
70322;SDS011;57735;56.264;43.898;2023-09-18T12:43:19;7.63;;;3.20;;
70322;SDS011;57735;56.264;43.898;2023-09-18T12:45:55;5.75;;;3.42;;
70322;SDS011;57735;56.264;43.898;2023-09-18T12:48:29;14.80;;;3.33;;
70322;SDS011;57735;56.264;43.898;2023-09-18T12:51:04;4.65;;;3.13;;
70322;SDS011;57735;56.264;43.898;2023-09-18T12:53:38;7.65;;;3.60;;
70322;SDS011;57735;56.264;43.898;2023-09-18T12:56:12;6.30;;;3.28;;
70322;SDS011;57735;56.264;43.898;2023-09-18T12:58:44;5.28;;;3.03;;
70322;SDS011;57735;56.264;43.898;2023-09-18T13:01:23;5.55;;;3.13;;
70322;SDS011;57735;56.264;43.898;2023-09-18T13:03:54;7.82;;;3.35;;
70322;SDS011;57735;56.264;43.898;2023-09-18T13:06:31;9.07;;;3.67;;
70322;SDS011;57735;56.264;43.898;2023-09-18T13:09:17;8.35;;;3.70;;
70322;SDS011;57735;56.264;43.898;2023-09-18T13:11:53;5.38;;;3.10;;
70322;SDS011;57735;56.264;43.898;2023-09-18T13:14:28;9.93;;;3.30;;
70322;SDS011;57735;56.264;43.898;2023-09-18T13:17:04;9.18;;;3.50;;
70322;SDS011;57735;56.264;43.898;2023-09-18T13:19:35;10.00;;;4.75;;
70322;SDS011;57735;56.264;43.898;2023-09-18T13:22:07;5.82;;;3.10;;
70322;SDS011;57735;56.264;43.898;2023-09-18T13:24:40;9.27;;;4.03;;
70322;SDS011;57735;56.264;43.898;2023-09-18T13:27:11;10.63;;;4.82;;
70322;SDS011;57735;56.264;43.898;2023-09-18T13:29:45;10.13;;;3.10;;
70322;SDS011;57735;56.264;43.898;2023-09-18T13:32:16;6.22;;;3.58;;
70322;SDS011;57735;56.264;43.898;2023-09-18T13:34:47;9.05;;;3.45;;
70322;SDS011;57735;56.264;43.898;2023-09-18T13:37:18;4.82;;;2.50;;
70322;SDS011;57735;56.264;43.898;2023-09-18T13:39:50;7.93;;;2.95;;
70322;SDS011;57735;56.264;43.898;2023-09-18T13:42:22;13.32;;;2.63;;
70322;SDS011;57735;56.264;43.898;2023-09-18T13:44:53;5.90;;;2.53;;
70322;SDS011;57735;56.264;43.898;2023-09-18T13:47:27;8.15;;;2.80;;
70322;SDS011;57735;56.264;43.898;2023-09-18T13:52:36;5.32;;;2.80;;
70322;SDS011;57735;56.264;43.898;2023-09-18T13:55:09;7.10;;;2.88;;
70322;SDS011;57735;56.264;43.898;2023-09-18T13:57:40;6.72;;;3.10;;
70322;SDS011;57735;56.264;43.898;2023-09-18T14:00:11;10.30;;;3.60;;
70322;SDS011;57735;56.264;43.898;2023-09-18T14:02:44;6.22;;;2.40;;
70322;SDS011;57735;56.264;43.898;2023-09-18T14:05:15;5.47;;;2.50;;
70322;SDS011;57735;56.264;43.898;2023-09-18T14:07:46;8.65;;;2.58;;
70322;SDS011;57735;56.264;43.898;2023-09-18T14:10:20;9.43;;;2.43;;
70322;SDS011;57735;56.264;43.898;2023-09-18T14:12:53;8.85;;;2.83;;
70322;SDS011;57735;56.264;43.898;2023-09-18T14:15:26;7.60;;;2.38;;
70322;SDS011;57735;56.264;43.898;2023-09-18T14:17:57;7.70;;;2.80;;
70322;SDS011;57735;56.264;43.898;2023-09-18T14:20:30;6.68;;;2.60;;
70322;SDS011;57735;56.264;43.898;2023-09-18T14:23:01;9.85;;;2.80;;
70322;SDS011;57735;56.264;43.898;2023-09-18T14:25:33;4.93;;;2.70;;
70322;SDS011;57735;56.264;43.898;2023-09-18T14:28:04;7.15;;;2.63;;
70322;SDS011;57735;56.264;43.898;2023-09-18T14:30:35;5.57;;;2.50;;
70322;SDS011;57735;56.264;43.898;2023-09-18T14:33:06;6.70;;;2.72;;
70322;SDS011;57735;56.264;43.898;2023-09-18T14:35:38;3.60;;;2.40;;
70322;SDS011;57735;56.264;43.898;2023-09-18T14:38:13;7.28;;;2.55;;
70322;SDS011;57735;56.264;43.898;2023-09-18T14:40:45;6.47;;;2.70;;
70322;SDS011;57735;56.264;43.898;2023-09-18T14:43:17;6.20;;;2.95;;
70322;SDS011;57735;56.264;43.898;2023-09-18T14:45:49;9.95;;;2.83;;
70322;SDS011;57735;56.264;43.898;2023-09-18T14:48:21;16.35;;;3.55;;
70322;SDS011;57735;56.264;43.898;2023-09-18T14:50:55;10.23;;;3.65;;
70322;SDS011;57735;56.264;43.898;2023-09-18T14:53:27;8.32;;;3.17;;
70322;SDS011;57735;56.264;43.898;2023-09-18T14:55:59;8.23;;;3.70;;
70322;SDS011;57735;56.264;43.898;2023-09-18T14:58:30;12.35;;;3.40;;
70322;SDS011;57735;56.264;43.898;2023-09-18T15:01:01;9.43;;;4.05;;
70322;SDS011;57735;56.264;43.898;2023-09-18T15:03:33;7.18;;;3.28;;
70322;SDS011;57735;56.264;43.898;2023-09-18T15:06:04;9.77;;;4.03;;
70322;SDS011;57735;56.264;43.898;2023-09-18T15:08:34;8.80;;;3.55;;
70322;SDS011;57735;56.264;43.898;2023-09-18T15:11:07;20.60;;;5.70;;
70322;SDS011;57735;56.264;43.898;2023-09-18T15:13:38;12.05;;;3.70;;
70322;SDS011;57735;56.264;43.898;2023-09-18T15:16:09;9.40;;;3.50;;
70322;SDS011;57735;56.264;43.898;2023-09-18T15:18:40;20.20;;;4.07;;
70322;SDS011;57735;56.264;43.898;2023-09-18T15:21:13;12.10;;;3.92;;
70322;SDS011;57735;56.264;43.898;2023-09-18T15:23:46;18.27;;;3.90;;
70322;SDS011;57735;56.264;43.898;2023-09-18T15:26:20;23.30;;;3.97;;
70322;SDS011;57735;56.264;43.898;2023-09-18T15:28:51;11.90;;;3.85;;
70322;SDS011;57735;56.264;43.898;2023-09-18T15:31:22;16.75;;;6.25;;
70322;SDS011;57735;56.264;43.898;2023-09-18T15:33:53;19.08;;;6.68;;
70322;SDS011;57735;56.264;43.898;2023-09-18T15:36:25;18.98;;;6.55;;